Flight Track Log - Related Links

Times and Time Zones

All times are in EDT time to prevent confusion due to time zone crossing. See the EJA831 flight status page for this flight to view local times or setup timezone preferences in your user account.

Time Position Orientation Groundspeed Altitude Reporting Facility
EDT Latitude Longitude Course Direction KTS MPH feet Rate Location/Type
Sat 09:56:44 AM 42.6000 -70.9833 304° West 188 216 2,000  Level KA90
Sat 09:57:45 AM 42.6000 -71.0500 270° West 190 219 2,000 545 Level KA90
Sat 09:58:45 AM 42.6000 -71.1333 270° West 192 221 3,100 1,632 Climbing KA90
Sat 09:59:39 AM 42.6000 -71.2000 270° West 222 255 5,100 2,908 Climbing KA90
Sat 10:01:28 AM 42.5136 -71.3247 227° Southwest 244 281 11,000 3,089 Climbing Boston Center
Sat 10:02:28 AM 42.4581 -71.3933 222° Southwest 261 300 13,800 1,364 Climbing Boston Center
Sat 10:03:40 AM 42.3878 -71.4592 215° Southwest 302 348 14,000 91 Climbing Boston Center
Sat 10:04:40 AM 42.3175 -71.5164 211° Southwest 328 377 14,000 700 Level Boston Center
Sat 10:05:40 AM 42.2181 -71.6019 213° Southwest 333 383 15,400 1,500 Climbing Boston Center
Sat 10:06:40 AM 42.1414 -71.6700 213° Southwest 333 383 17,000 1,800 Climbing Boston Center
Sat 10:07:40 AM 42.0628 -71.7381 213° Southwest 333 383 19,000 1,500 Climbing Boston Center
Sat 10:09:04 AM 41.9736 -71.8175 214° Southwest 343 395 20,600 1,250 Climbing Boston Center
Sat 10:10:04 AM 41.8761 -71.9019 213° Southwest 343 395 22,000 700 Climbing Boston Center
Sat 10:11:04 AM 41.7889 -71.9750 212° Southwest 356 410 22,000  Level Boston Center
Sat 10:12:04 AM 41.7058 -72.0481 213° Southwest 361 415 22,000  Level Boston Center
Sat 10:13:04 AM 41.6206 -72.1208 213° Southwest 367 422 22,000  Level Boston Center
Sat 10:14:04 AM 41.5497 -72.1794 212° Southwest 367 422 22,000  Level Boston Center
Sat 10:15:04 AM 41.4458 -72.2683 213° Southwest 367 422 22,000  Level Boston Center
Sat 10:16:04 AM 41.3603 -72.3378 211° Southwest 367 422 22,000  Level Boston Center
Sat 10:17:04 AM 41.2731 -72.4125 213° Southwest 367 422 22,000  Level Boston Center
Sat 10:18:04 AM 41.1853 -72.4925 214° Southwest 373 429 22,000  Level Boston Center
Sat 10:19:04 AM 41.0978 -72.5642 212° Southwest 373 429 22,000  Level Boston Center
Sat 10:20:04 AM 41.0122 -72.6381 213° Southwest 373 429 22,000  Level Boston Center
Sat 10:21:04 AM 40.9247 -72.7039 210° Southwest 368 423 22,000 -300 Level Boston Center
Sat 10:22:04 AM 40.8389 -72.7803 214° Southwest 368 423 21,400 -698 Descending Boston Center
Sat 10:23:56 AM 40.6714 -72.9192 212° Southwest 363 418 20,000 -486 Descending New York Center
Sat 10:24:57 AM 40.5869 -72.9875 212° Southwest 363 418 20,000  Level New York Center
Sat 10:25:54 AM 40.4981 -73.0608 212° Southwest 369 425 20,000  Level New York Center
Sat 10:26:55 AM 40.4133 -73.1289 211° Southwest 369 425 20,000  Level New York Center
Sat 10:27:55 AM 40.3264 -73.1994 212° Southwest 369 425 20,000  Level New York Center
Sat 10:28:54 AM 40.2414 -73.2725 213° Southwest 369 425 20,000  Level New York Center
Sat 10:29:54 AM 40.1544 -73.3400 211° Southwest 369 425 20,000  Level New York Center
Sat 10:30:54 AM 40.0697 -73.4100 212° Southwest 369 425 20,000  Level New York Center
Sat 10:31:55 AM 39.9911 -73.4694 210° Southwest 364 419 20,000 -397 Level New York Center
Sat 10:32:55 AM 39.9103 -73.5367 213° Southwest 364 419 19,200 -942 Descending New York Center
Sat 10:33:56 AM 39.8478 -73.6314 229° Southwest 357 411 18,100 -1,140 Descending New York Center
Sat 10:34:56 AM 39.7847 -73.7289 230° Southwest 352 405 16,900 -1,169 Descending New York Center
Sat 10:35:54 AM 39.7217 -73.8314 231° Southwest 347 399 15,800 -888 Descending New York Center
Sat 10:38:12 AM 39.5867 -74.0406 230° Southwest 329 379 14,000 -543 Descending Washington Center
Sat 10:39:13 AM 39.5294 -74.1306 231° Southwest 334 384 14,000  Level Washington Center
Sat 10:40:13 AM 39.5244 -74.2411 267° West 310 357 14,000 -198 Level Washington Center
Sat 10:41:14 AM 39.5278 -74.3567 272° West 307 353 13,600 -744 Descending Washington Center
Sat 10:42:14 AM 39.5289 -74.4533 271° West 314 361 12,500 -1,280 Descending Washington Center
Sat 10:43:58 AM 39.5333 -74.6500 272° West 272 313 10,100 -1,288 Descending Philadelphia TRACON
Sat 10:44:57 AM 39.5333 -74.7500 270° West 257 296 9,000 -789 Descending Philadelphia TRACON
Sat 10:45:52 AM 39.5500 -74.8333 285° West 254 292 8,600 -939 Descending Philadelphia TRACON
Sat 10:46:52 AM 39.5667 -74.9167 285° West 255 293 7,200 -1,286 Descending Philadelphia TRACON
Sat 10:47:58 AM 39.6000 -75.0000 297° West 248 285 5,900 -1,211 Descending Philadelphia TRACON
Sat 10:48:46 AM 39.6333 -75.0500 311° West 245 282 4,900 -1,389 Descending Philadelphia TRACON
Sat 10:49:46 AM 39.7000 -75.1000 330° Northwest 245 282 3,400 -1,350 Descending Philadelphia TRACON
Sat 10:50:46 AM 39.7500 -75.1333 333° Northwest 175 201 2,200 -714 Descending Philadelphia TRACON
Sat 10:51:52 AM 39.7833 -75.1833 311° West 166 191 1,900 -500 Descending Philadelphia TRACON
Sat 10:52:46 AM 39.8167 -75.2000 339° North 154 177 1,200 -737 Descending Philadelphia TRACON
Sat 10:53:46 AM 39.8500 -75.2167 339° North 119 137 500 -700 Descending Philadelphia TRACON

Login

Don't have an account? Register now (free) for customized features, flight alerts, and more!